sensor_id;sensor_type;location;lat;lon;timestamp;P1;durP1;ratioP1;P2;durP2;ratioP2
60718;SDS011;46567;51.660;5.824;2023-08-17T00:02:09;4.2;;;1.9;;
60718;SDS011;46567;51.660;5.824;2023-08-17T00:07:09;5.3;;;2.3;;
60718;SDS011;46567;51.660;5.824;2023-08-17T00:12:09;2.6;;;1.9;;
60718;SDS011;46567;51.660;5.824;2023-08-17T00:17:09;3.3;;;1.9;;
60718;SDS011;46567;51.660;5.824;2023-08-17T00:22:09;4.8;;;2.1;;
60718;SDS011;46567;51.660;5.824;2023-08-17T00:27:09;3.6;;;2.0;;
60718;SDS011;46567;51.660;5.824;2023-08-17T00:32:09;4.1;;;2.2;;
60718;SDS011;46567;51.660;5.824;2023-08-17T00:37:09;4.7;;;2.4;;
60718;SDS011;46567;51.660;5.824;2023-08-17T00:42:09;5.0;;;2.3;;
60718;SDS011;46567;51.660;5.824;2023-08-17T00:47:09;5.3;;;2.2;;
60718;SDS011;46567;51.660;5.824;2023-08-17T00:52:09;3.0;;;2.0;;
60718;SDS011;46567;51.660;5.824;2023-08-17T00:57:09;4.1;;;2.4;;
60718;SDS011;46567;51.660;5.824;2023-08-17T01:02:09;3.1;;;1.8;;
60718;SDS011;46567;51.660;5.824;2023-08-17T01:07:09;3.8;;;2.0;;
60718;SDS011;46567;51.660;5.824;2023-08-17T01:13:04;7.4;;;2.5;;
60718;SDS011;46567;51.660;5.824;2023-08-17T01:18:40;4.1;;;2.6;;
60718;SDS011;46567;51.660;5.824;2023-08-17T01:22:21;4.7;;;2.7;;
60718;SDS011;46567;51.660;5.824;2023-08-17T01:27:09;4.9;;;2.5;;
60718;SDS011;46567;51.660;5.824;2023-08-17T01:32:53;6.6;;;2.8;;
60718;SDS011;46567;51.660;5.824;2023-08-17T01:37:43;6.0;;;2.8;;
60718;SDS011;46567;51.660;5.824;2023-08-17T01:42:10;6.5;;;3.1;;
60718;SDS011;46567;51.660;5.824;2023-08-17T01:47:09;5.2;;;2.7;;
60718;SDS011;46567;51.660;5.824;2023-08-17T01:52:09;5.4;;;2.6;;
60718;SDS011;46567;51.660;5.824;2023-08-17T01:57:09;5.1;;;2.7;;
60718;SDS011;46567;51.660;5.824;2023-08-17T02:02:09;6.0;;;2.9;;
60718;SDS011;46567;51.660;5.824;2023-08-17T02:07:09;6.7;;;3.2;;
60718;SDS011;46567;51.660;5.824;2023-08-17T02:12:09;4.2;;;2.9;;
60718;SDS011;46567;51.660;5.824;2023-08-17T02:17:09;5.0;;;2.5;;
60718;SDS011;46567;51.660;5.824;2023-08-17T02:22:09;5.7;;;2.6;;
60718;SDS011;46567;51.660;5.824;2023-08-17T02:27:09;4.8;;;2.9;;
60718;SDS011;46567;51.660;5.824;2023-08-17T02:32:09;5.1;;;2.7;;
60718;SDS011;46567;51.660;5.824;2023-08-17T02:37:09;4.8;;;2.6;;
60718;SDS011;46567;51.660;5.824;2023-08-17T02:42:09;5.1;;;2.4;;
60718;SDS011;46567;51.660;5.824;2023-08-17T02:47:09;5.3;;;2.6;;
60718;SDS011;46567;51.660;5.824;2023-08-17T02:52:09;5.0;;;2.5;;
60718;SDS011;46567;51.660;5.824;2023-08-17T02:57:09;4.4;;;2.3;;
60718;SDS011;46567;51.660;5.824;2023-08-17T03:02:09;6.3;;;2.5;;
60718;SDS011;46567;51.660;5.824;2023-08-17T03:07:09;4.6;;;2.5;;
60718;SDS011;46567;51.660;5.824;2023-08-17T03:12:09;5.2;;;2.6;;
60718;SDS011;46567;51.660;5.824;2023-08-17T03:17:09;4.2;;;2.5;;
60718;SDS011;46567;51.660;5.824;2023-08-17T03:22:09;4.9;;;2.8;;
60718;SDS011;46567;51.660;5.824;2023-08-17T03:27:09;5.7;;;2.7;;
60718;SDS011;46567;51.660;5.824;2023-08-17T03:32:09;6.0;;;3.1;;
60718;SDS011;46567;51.660;5.824;2023-08-17T03:37:09;5.9;;;3.0;;
60718;SDS011;46567;51.660;5.824;2023-08-17T03:42:09;4.7;;;2.8;;
60718;SDS011;46567;51.660;5.824;2023-08-17T03:47:09;6.4;;;2.6;;
60718;SDS011;46567;51.660;5.824;2023-08-17T03:52:09;4.2;;;2.5;;
60718;SDS011;46567;51.660;5.824;2023-08-17T03:57:09;4.9;;;2.4;;
60718;SDS011;46567;51.660;5.824;2023-08-17T04:02:09;4.3;;;2.6;;
60718;SDS011;46567;51.660;5.824;2023-08-17T04:07:09;5.2;;;2.4;;
60718;SDS011;46567;51.660;5.824;2023-08-17T04:12:09;8.3;;;2.7;;
60718;SDS011;46567;51.660;5.824;2023-08-17T04:17:09;4.5;;;2.4;;
60718;SDS011;46567;51.660;5.824;2023-08-17T04:22:09;5.8;;;3.0;;
60718;SDS011;46567;51.660;5.824;2023-08-17T04:27:09;5.3;;;2.6;;
60718;SDS011;46567;51.660;5.824;2023-08-17T04:32:13;7.3;;;2.7;;
60718;SDS011;46567;51.660;5.824;2023-08-17T04:37:09;5.4;;;2.9;;
60718;SDS011;46567;51.660;5.824;2023-08-17T04:42:09;6.6;;;3.0;;
60718;SDS011;46567;51.660;5.824;2023-08-17T04:47:09;6.2;;;2.8;;
60718;SDS011;46567;51.660;5.824;2023-08-17T04:52:09;4.3;;;3.0;;
60718;SDS011;46567;51.660;5.824;2023-08-17T04:57:09;8.1;;;3.0;;
60718;SDS011;46567;51.660;5.824;2023-08-17T05:02:09;4.5;;;3.0;;
60718;SDS011;46567;51.660;5.824;2023-08-17T05:07:09;6.1;;;3.3;;
60718;SDS011;46567;51.660;5.824;2023-08-17T05:12:09;5.8;;;2.9;;
60718;SDS011;46567;51.660;5.824;2023-08-17T05:22:12;5.2;;;2.8;;
60718;SDS011;46567;51.660;5.824;2023-08-17T05:27:09;4.2;;;2.7;;
60718;SDS011;46567;51.660;5.824;2023-08-17T05:32:09;7.9;;;3.1;;
60718;SDS011;46567;51.660;5.824;2023-08-17T05:37:09;5.3;;;2.9;;
60718;SDS011;46567;51.660;5.824;2023-08-17T05:42:09;5.6;;;2.9;;
60718;SDS011;46567;51.660;5.824;2023-08-17T05:47:09;4.9;;;3.0;;
60718;SDS011;46567;51.660;5.824;2023-08-17T05:52:09;6.1;;;2.9;;
60718;SDS011;46567;51.660;5.824;2023-08-17T05:57:09;6.1;;;3.0;;
60718;SDS011;46567;51.660;5.824;2023-08-17T06:02:09;6.0;;;3.1;;
60718;SDS011;46567;51.660;5.824;2023-08-17T06:07:09;5.1;;;3.0;;
60718;SDS011;46567;51.660;5.824;2023-08-17T06:12:09;6.5;;;2.9;;
60718;SDS011;46567;51.660;5.824;2023-08-17T06:17:09;5.8;;;2.8;;
60718;SDS011;46567;51.660;5.824;2023-08-17T06:22:09;6.5;;;2.8;;
60718;SDS011;46567;51.660;5.824;2023-08-17T06:27:11;6.1;;;2.8;;
60718;SDS011;46567;51.660;5.824;2023-08-17T06:32:09;4.0;;;2.8;;
60718;SDS011;46567;51.660;5.824;2023-08-17T06:37:09;6.6;;;2.9;;
60718;SDS011;46567;51.660;5.824;2023-08-17T06:42:09;6.2;;;2.9;;
60718;SDS011;46567;51.660;5.824;2023-08-17T06:47:09;3.7;;;2.5;;
60718;SDS011;46567;51.660;5.824;2023-08-17T06:52:09;4.8;;;2.7;;
60718;SDS011;46567;51.660;5.824;2023-08-17T06:57:09;6.5;;;3.0;;
60718;SDS011;46567;51.660;5.824;2023-08-17T07:02:09;5.9;;;2.7;;
60718;SDS011;46567;51.660;5.824;2023-08-17T07:07:09;5.2;;;2.5;;
60718;SDS011;46567;51.660;5.824;2023-08-17T07:12:09;4.9;;;2.7;;
60718;SDS011;46567;51.660;5.824;2023-08-17T07:17:09;7.8;;;2.8;;
60718;SDS011;46567;51.660;5.824;2023-08-17T07:22:09;8.5;;;3.0;;
60718;SDS011;46567;51.660;5.824;2023-08-17T07:27:09;9.1;;;3.1;;
60718;SDS011;46567;51.660;5.824;2023-08-17T07:32:09;6.6;;;3.2;;
60718;SDS011;46567;51.660;5.824;2023-08-17T07:37:09;4.2;;;2.8;;
60718;SDS011;46567;51.660;5.824;2023-08-17T07:42:09;6.0;;;3.1;;
60718;SDS011;46567;51.660;5.824;2023-08-17T07:47:09;7.6;;;3.1;;
60718;SDS011;46567;51.660;5.824;2023-08-17T07:52:09;5.3;;;3.1;;
60718;SDS011;46567;51.660;5.824;2023-08-17T07:57:09;6.6;;;2.9;;
60718;SDS011;46567;51.660;5.824;2023-08-17T08:02:09;8.5;;;3.5;;
60718;SDS011;46567;51.660;5.824;2023-08-17T08:07:10;8.0;;;3.2;;
60718;SDS011;46567;51.660;5.824;2023-08-17T08:12:09;6.2;;;3.8;;
60718;SDS011;46567;51.660;5.824;2023-08-17T08:17:09;7.7;;;3.8;;
60718;SDS011;46567;51.660;5.824;2023-08-17T08:22:09;5.5;;;2.9;;
60718;SDS011;46567;51.660;5.824;2023-08-17T08:27:09;4.8;;;3.2;;
60718;SDS011;46567;51.660;5.824;2023-08-17T08:32:09;7.7;;;3.5;;
60718;SDS011;46567;51.660;5.824;2023-08-17T08:37:09;6.6;;;3.1;;
60718;SDS011;46567;51.660;5.824;2023-08-17T08:42:09;5.2;;;3.1;;
60718;SDS011;46567;51.660;5.824;2023-08-17T08:47:11;6.7;;;3.5;;
60718;SDS011;46567;51.660;5.824;2023-08-17T08:52:22;6.9;;;3.6;;
60718;SDS011;46567;51.660;5.824;2023-08-17T08:57:13;8.0;;;4.1;;
60718;SDS011;46567;51.660;5.824;2023-08-17T09:02:14;9.0;;;4.4;;
60718;SDS011;46567;51.660;5.824;2023-08-17T09:07:12;9.7;;;4.7;;
60718;SDS011;46567;51.660;5.824;2023-08-17T09:12:09;10.5;;;4.4;;
60718;SDS011;46567;51.660;5.824;2023-08-17T09:17:09;11.1;;;4.9;;
60718;SDS011;46567;51.660;5.824;2023-08-17T09:22:09;9.9;;;4.4;;
60718;SDS011;46567;51.660;5.824;2023-08-17T09:27:11;9.4;;;4.5;;
60718;SDS011;46567;51.660;5.824;2023-08-17T09:32:09;10.3;;;4.5;;
60718;SDS011;46567;51.660;5.824;2023-08-17T09:37:12;8.4;;;4.3;;
60718;SDS011;46567;51.660;5.824;2023-08-17T09:42:09;11.5;;;5.6;;
60718;SDS011;46567;51.660;5.824;2023-08-17T09:47:09;8.7;;;4.6;;
60718;SDS011;46567;51.660;5.824;2023-08-17T09:52:10;10.6;;;4.7;;
60718;SDS011;46567;51.660;5.824;2023-08-17T09:57:09;9.8;;;4.6;;
60718;SDS011;46567;51.660;5.824;2023-08-17T10:02:12;8.6;;;4.9;;
60718;SDS011;46567;51.660;5.824;2023-08-17T10:12:10;8.6;;;5.1;;
60718;SDS011;46567;51.660;5.824;2023-08-17T10:17:10;8.6;;;5.0;;
60718;SDS011;46567;51.660;5.824;2023-08-17T10:22:20;8.3;;;4.9;;
60718;SDS011;46567;51.660;5.824;2023-08-17T10:27:09;7.8;;;4.7;;
60718;SDS011;46567;51.660;5.824;2023-08-17T10:32:09;10.3;;;4.9;;
60718;SDS011;46567;51.660;5.824;2023-08-17T10:37:10;9.5;;;5.5;;
60718;SDS011;46567;51.660;5.824;2023-08-17T10:42:09;11.9;;;6.6;;
60718;SDS011;46567;51.660;5.824;2023-08-17T10:47:18;11.3;;;5.4;;
60718;SDS011;46567;51.660;5.824;2023-08-17T10:52:09;9.3;;;5.9;;
60718;SDS011;46567;51.660;5.824;2023-08-17T10:57:24;12.8;;;6.0;;
60718;SDS011;46567;51.660;5.824;2023-08-17T11:02:09;9.6;;;5.8;;
60718;SDS011;46567;51.660;5.824;2023-08-17T11:07:13;11.6;;;6.1;;
60718;SDS011;46567;51.660;5.824;2023-08-17T11:12:24;12.8;;;6.2;;
60718;SDS011;46567;51.660;5.824;2023-08-17T11:17:09;11.3;;;5.6;;
60718;SDS011;46567;51.660;5.824;2023-08-17T11:22:09;12.0;;;5.9;;
60718;SDS011;46567;51.660;5.824;2023-08-17T11:27:09;9.7;;;5.6;;
60718;SDS011;46567;51.660;5.824;2023-08-17T11:32:09;11.7;;;6.1;;
60718;SDS011;46567;51.660;5.824;2023-08-17T11:37:10;12.3;;;6.2;;
60718;SDS011;46567;51.660;5.824;2023-08-17T11:42:09;9.2;;;5.9;;
60718;SDS011;46567;51.660;5.824;2023-08-17T11:47:10;9.3;;;6.4;;
60718;SDS011;46567;51.660;5.824;2023-08-17T11:52:09;9.3;;;6.6;;
60718;SDS011;46567;51.660;5.824;2023-08-17T11:57:09;10.3;;;6.6;;
60718;SDS011;46567;51.660;5.824;2023-08-17T12:02:09;9.5;;;6.5;;
60718;SDS011;46567;51.660;5.824;2023-08-17T12:07:10;9.7;;;6.6;;
60718;SDS011;46567;51.660;5.824;2023-08-17T12:12:10;11.1;;;7.1;;
60718;SDS011;46567;51.660;5.824;2023-08-17T12:17:13;11.1;;;7.1;;
60718;SDS011;46567;51.660;5.824;2023-08-17T12:22:10;10.4;;;7.3;;
60718;SDS011;46567;51.660;5.824;2023-08-17T12:27:10;10.1;;;6.8;;
60718;SDS011;46567;51.660;5.824;2023-08-17T12:32:10;12.9;;;7.1;;
60718;SDS011;46567;51.660;5.824;2023-08-17T12:37:10;10.0;;;7.0;;
60718;SDS011;46567;51.660;5.824;2023-08-17T12:42:09;10.0;;;7.2;;
60718;SDS011;46567;51.660;5.824;2023-08-17T12:47:09;11.2;;;7.3;;
60718;SDS011;46567;51.660;5.824;2023-08-17T12:52:09;10.6;;;7.7;;
60718;SDS011;46567;51.660;5.824;2023-08-17T12:57:09;11.6;;;7.8;;
60718;SDS011;46567;51.660;5.824;2023-08-17T13:02:10;11.2;;;7.6;;
60718;SDS011;46567;51.660;5.824;2023-08-17T13:07:09;10.8;;;7.5;;
60718;SDS011;46567;51.660;5.824;2023-08-17T13:12:10;10.4;;;7.5;;
60718;SDS011;46567;51.660;5.824;2023-08-17T13:17:09;13.1;;;7.3;;
60718;SDS011;46567;51.660;5.824;2023-08-17T13:22:10;12.4;;;7.8;;
60718;SDS011;46567;51.660;5.824;2023-08-17T13:27:09;12.9;;;8.0;;
60718;SDS011;46567;51.660;5.824;2023-08-17T13:32:10;11.6;;;7.1;;
60718;SDS011;46567;51.660;5.824;2023-08-17T13:37:10;14.9;;;7.7;;
60718;SDS011;46567;51.660;5.824;2023-08-17T13:42:10;11.0;;;7.6;;
60718;SDS011;46567;51.660;5.824;2023-08-17T13:47:09;14.4;;;7.7;;
60718;SDS011;46567;51.660;5.824;2023-08-17T13:52:10;9.2;;;7.3;;
60718;SDS011;46567;51.660;5.824;2023-08-17T13:57:10;10.1;;;7.1;;
60718;SDS011;46567;51.660;5.824;2023-08-17T14:02:10;11.6;;;7.6;;
60718;SDS011;46567;51.660;5.824;2023-08-17T14:07:09;8.7;;;6.6;;
60718;SDS011;46567;51.660;5.824;2023-08-17T14:12:09;11.3;;;8.1;;
60718;SDS011;46567;51.660;5.824;2023-08-17T14:17:10;12.9;;;7.6;;
60718;SDS011;46567;51.660;5.824;2023-08-17T14:22:09;15.1;;;8.4;;
60718;SDS011;46567;51.660;5.824;2023-08-17T14:27:09;12.6;;;8.1;;
60718;SDS011;46567;51.660;5.824;2023-08-17T14:32:10;11.1;;;7.8;;
60718;SDS011;46567;51.660;5.824;2023-08-17T14:37:09;12.6;;;8.7;;
60718;SDS011;46567;51.660;5.824;2023-08-17T14:42:09;8.9;;;8.0;;
60718;SDS011;46567;51.660;5.824;2023-08-17T14:47:09;13.9;;;8.1;;
60718;SDS011;46567;51.660;5.824;2023-08-17T14:52:10;17.5;;;8.5;;
60718;SDS011;46567;51.660;5.824;2023-08-17T14:57:09;11.7;;;9.3;;
60718;SDS011;46567;51.660;5.824;2023-08-17T15:02:09;10.9;;;9.0;;
60718;SDS011;46567;51.660;5.824;2023-08-17T15:07:09;10.6;;;8.0;;
60718;SDS011;46567;51.660;5.824;2023-08-17T15:12:10;9.8;;;7.8;;
60718;SDS011;46567;51.660;5.824;2023-08-17T15:17:09;10.1;;;8.9;;
60718;SDS011;46567;51.660;5.824;2023-08-17T15:22:09;11.9;;;9.3;;
60718;SDS011;46567;51.660;5.824;2023-08-17T15:27:09;11.2;;;9.9;;
60718;SDS011;46567;51.660;5.824;2023-08-17T15:32:10;10.6;;;9.0;;
60718;SDS011;46567;51.660;5.824;2023-08-17T15:37:10;11.3;;;9.5;;
60718;SDS011;46567;51.660;5.824;2023-08-17T15:42:09;11.7;;;9.5;;
60718;SDS011;46567;51.660;5.824;2023-08-17T15:47:10;12.7;;;10.0;;
60718;SDS011;46567;51.660;5.824;2023-08-17T15:52:10;11.5;;;9.5;;
60718;SDS011;46567;51.660;5.824;2023-08-17T15:57:09;13.2;;;9.9;;
60718;SDS011;46567;51.660;5.824;2023-08-17T16:02:09;12.1;;;9.3;;
60718;SDS011;46567;51.660;5.824;2023-08-17T16:07:10;16.0;;;10.4;;
60718;SDS011;46567;51.660;5.824;2023-08-17T16:12:10;11.2;;;10.1;;
60718;SDS011;46567;51.660;5.824;2023-08-17T16:17:10;13.4;;;10.4;;
60718;SDS011;46567;51.660;5.824;2023-08-17T16:22:10;11.0;;;9.9;;
60718;SDS011;46567;51.660;5.824;2023-08-17T16:27:10;12.8;;;10.4;;
60718;SDS011;46567;51.660;5.824;2023-08-17T16:32:10;13.8;;;10.4;;
60718;SDS011;46567;51.660;5.824;2023-08-17T16:37:10;13.4;;;10.2;;
60718;SDS011;46567;51.660;5.824;2023-08-17T16:42:10;12.2;;;10.5;;
60718;SDS011;46567;51.660;5.824;2023-08-17T16:47:10;12.6;;;10.7;;
60718;SDS011;46567;51.660;5.824;2023-08-17T16:52:10;13.4;;;10.6;;
60718;SDS011;46567;51.660;5.824;2023-08-17T16:57:10;12.6;;;10.1;;
60718;SDS011;46567;51.660;5.824;2023-08-17T17:02:10;13.5;;;10.2;;
60718;SDS011;46567;51.660;5.824;2023-08-17T17:07:10;11.5;;;9.5;;
60718;SDS011;46567;51.660;5.824;2023-08-17T17:12:10;11.3;;;9.0;;
60718;SDS011;46567;51.660;5.824;2023-08-17T17:17:10;10.3;;;9.0;;
60718;SDS011;46567;51.660;5.824;2023-08-17T17:22:10;10.5;;;9.1;;
60718;SDS011;46567;51.660;5.824;2023-08-17T17:27:10;11.3;;;10.0;;
60718;SDS011;46567;51.660;5.824;2023-08-17T17:32:10;12.6;;;10.4;;
60718;SDS011;46567;51.660;5.824;2023-08-17T17:37:10;11.8;;;10.1;;
60718;SDS011;46567;51.660;5.824;2023-08-17T17:42:10;12.9;;;10.7;;
60718;SDS011;46567;51.660;5.824;2023-08-17T17:47:10;12.6;;;11.0;;
60718;SDS011;46567;51.660;5.824;2023-08-17T17:52:10;14.4;;;11.6;;
60718;SDS011;46567;51.660;5.824;2023-08-17T17:57:10;13.4;;;11.5;;
60718;SDS011;46567;51.660;5.824;2023-08-17T18:02:10;20.2;;;11.9;;
60718;SDS011;46567;51.660;5.824;2023-08-17T18:07:10;17.3;;;12.2;;
60718;SDS011;46567;51.660;5.824;2023-08-17T18:12:10;15.8;;;12.4;;
60718;SDS011;46567;51.660;5.824;2023-08-17T18:17:10;16.6;;;12.4;;
60718;SDS011;46567;51.660;5.824;2023-08-17T18:22:10;18.7;;;13.9;;
60718;SDS011;46567;51.660;5.824;2023-08-17T18:27:10;17.0;;;14.0;;
60718;SDS011;46567;51.660;5.824;2023-08-17T18:32:10;16.9;;;14.4;;
60718;SDS011;46567;51.660;5.824;2023-08-17T18:37:10;19.7;;;14.8;;
60718;SDS011;46567;51.660;5.824;2023-08-17T18:42:10;18.8;;;15.3;;
60718;SDS011;46567;51.660;5.824;2023-08-17T18:47:10;19.0;;;15.3;;
60718;SDS011;46567;51.660;5.824;2023-08-17T18:52:10;21.8;;;15.7;;
60718;SDS011;46567;51.660;5.824;2023-08-17T18:57:10;19.9;;;14.7;;
60718;SDS011;46567;51.660;5.824;2023-08-17T19:02:10;16.9;;;15.0;;
60718;SDS011;46567;51.660;5.824;2023-08-17T19:07:10;17.3;;;14.7;;
60718;SDS011;46567;51.660;5.824;2023-08-17T19:12:10;20.5;;;15.6;;
60718;SDS011;46567;51.660;5.824;2023-08-17T19:17:10;20.4;;;16.0;;
60718;SDS011;46567;51.660;5.824;2023-08-17T19:22:10;17.6;;;15.4;;
60718;SDS011;46567;51.660;5.824;2023-08-17T19:27:10;18.5;;;14.6;;
60718;SDS011;46567;51.660;5.824;2023-08-17T19:32:10;18.3;;;15.2;;
60718;SDS011;46567;51.660;5.824;2023-08-17T19:37:10;19.7;;;15.5;;
60718;SDS011;46567;51.660;5.824;2023-08-17T19:42:10;17.9;;;14.9;;
60718;SDS011;46567;51.660;5.824;2023-08-17T19:47:10;20.1;;;15.6;;
60718;SDS011;46567;51.660;5.824;2023-08-17T19:52:10;17.8;;;14.8;;
60718;SDS011;46567;51.660;5.824;2023-08-17T19:57:10;19.4;;;14.8;;
60718;SDS011;46567;51.660;5.824;2023-08-17T20:02:10;19.0;;;15.1;;
60718;SDS011;46567;51.660;5.824;2023-08-17T20:07:10;17.0;;;14.6;;
60718;SDS011;46567;51.660;5.824;2023-08-17T20:12:10;18.1;;;14.8;;
60718;SDS011;46567;51.660;5.824;2023-08-17T20:17:10;18.0;;;14.6;;
60718;SDS011;46567;51.660;5.824;2023-08-17T20:22:10;16.7;;;14.4;;
60718;SDS011;46567;51.660;5.824;2023-08-17T20:27:10;19.1;;;15.0;;
60718;SDS011;46567;51.660;5.824;2023-08-17T20:32:10;19.5;;;13.8;;
60718;SDS011;46567;51.660;5.824;2023-08-17T20:37:10;14.9;;;13.4;;
60718;SDS011;46567;51.660;5.824;2023-08-17T20:42:10;15.6;;;13.2;;
60718;SDS011;46567;51.660;5.824;2023-08-17T20:47:10;15.6;;;12.1;;
60718;SDS011;46567;51.660;5.824;2023-08-17T20:52:10;13.9;;;11.7;;
60718;SDS011;46567;51.660;5.824;2023-08-17T20:57:10;15.2;;;11.7;;
60718;SDS011;46567;51.660;5.824;2023-08-17T21:02:10;11.7;;;10.3;;
60718;SDS011;46567;51.660;5.824;2023-08-17T21:07:10;10.8;;;9.6;;
60718;SDS011;46567;51.660;5.824;2023-08-17T21:12:10;8.9;;;8.0;;
60718;SDS011;46567;51.660;5.824;2023-08-17T21:17:10;10.4;;;9.0;;
60718;SDS011;46567;51.660;5.824;2023-08-17T21:22:10;10.1;;;9.0;;
60718;SDS011;46567;51.660;5.824;2023-08-17T21:27:10;11.0;;;9.0;;
60718;SDS011;46567;51.660;5.824;2023-08-17T21:32:10;10.0;;;8.4;;
60718;SDS011;46567;51.660;5.824;2023-08-17T21:37:10;11.7;;;8.7;;
60718;SDS011;46567;51.660;5.824;2023-08-17T21:42:10;14.3;;;8.6;;
60718;SDS011;46567;51.660;5.824;2023-08-17T21:47:10;9.4;;;7.8;;
60718;SDS011;46567;51.660;5.824;2023-08-17T21:52:10;11.0;;;7.8;;
60718;SDS011;46567;51.660;5.824;2023-08-17T21:57:10;11.2;;;8.1;;
60718;SDS011;46567;51.660;5.824;2023-08-17T22:02:10;9.0;;;7.7;;
60718;SDS011;46567;51.660;5.824;2023-08-17T22:07:10;9.2;;;7.8;;
60718;SDS011;46567;51.660;5.824;2023-08-17T22:12:10;10.3;;;8.1;;
60718;SDS011;46567;51.660;5.824;2023-08-17T22:17:10;10.4;;;7.8;;
60718;SDS011;46567;51.660;5.824;2023-08-17T22:22:10;10.7;;;8.4;;
60718;SDS011;46567;51.660;5.824;2023-08-17T22:27:10;10.6;;;7.3;;
60718;SDS011;46567;51.660;5.824;2023-08-17T22:32:10;9.2;;;6.8;;
60718;SDS011;46567;51.660;5.824;2023-08-17T22:37:10;8.7;;;7.1;;
60718;SDS011;46567;51.660;5.824;2023-08-17T22:42:10;8.3;;;7.4;;
60718;SDS011;46567;51.660;5.824;2023-08-17T22:47:10;9.0;;;7.1;;
60718;SDS011;46567;51.660;5.824;2023-08-17T22:52:10;8.6;;;6.8;;
60718;SDS011;46567;51.660;5.824;2023-08-17T22:57:10;9.9;;;7.2;;
60718;SDS011;46567;51.660;5.824;2023-08-17T23:02:10;8.5;;;7.4;;
60718;SDS011;46567;51.660;5.824;2023-08-17T23:07:10;9.4;;;7.2;;
60718;SDS011;46567;51.660;5.824;2023-08-17T23:12:10;8.6;;;6.9;;
60718;SDS011;46567;51.660;5.824;2023-08-17T23:17:10;8.7;;;6.8;;
60718;SDS011;46567;51.660;5.824;2023-08-17T23:22:10;7.9;;;6.9;;
60718;SDS011;46567;51.660;5.824;2023-08-17T23:27:10;8.6;;;6.9;;
60718;SDS011;46567;51.660;5.824;2023-08-17T23:32:10;8.7;;;6.9;;
60718;SDS011;46567;51.660;5.824;2023-08-17T23:37:10;8.2;;;6.8;;
60718;SDS011;46567;51.660;5.824;2023-08-17T23:42:10;9.0;;;6.6;;
60718;SDS011;46567;51.660;5.824;2023-08-17T23:47:10;11.0;;;7.6;;
60718;SDS011;46567;51.660;5.824;2023-08-17T23:52:10;7.6;;;6.5;;
60718;SDS011;46567;51.660;5.824;2023-08-17T23:57:10;9.7;;;6.8;;
